Egan, Illinois
Current Conditions -  °F | °C
As of 6:15 PM on Friday 19 Dec 2014 (Local Time) from KFEP Reporting Station
Overcast Overcast  
Wind Chill: 26°   Ceiling: 3500
Heat Index: 26°   Visibility: 10mi
Dew Point: 22°   Wind: 0mph
Humidity: 84%   Direction: NA
Pressure: 30.29"   Gusts: NA
Location:  42.1509°N, 89.4005°W
Report Text: KFEP 200015Z AUTO 00000KT 10SM SCT016 OVC035 M03/M05 A3029 RMK AO2 T10321055
Loading
Personal Weather Stations






























Interactive Weather Map New forecast layout! Learn more

10-Day Weather Forecast

Advertisements
Track Severe Weather on mobile